KCSM

Clinton-Sherman Airport

Burns Flat, Oklahoma, USA
METAR KCSM 191453Z AUTO 32009KT 10SM CLR 23/21 A2992 RMK AO2 SLP108 T02330211 51014
Observed Flight Rules
Aug-19 @ 14:53 UTC (46 minutes ago) Visual Flight Rules
Wind Visibility Clouds
320° at 9 knots 10 miles
  • Clear skies
Temperatures Readings
Current 23°C / 73°F
Dewpoint 21°C / 70°F
Humidity 89%
Altimeter 29.92" Hg
Pressure 1010.8 hPa
Elevation 588
METAR KCSM 191453Z AUTO 32009KT 10SM CLR 23/21 A2992 RMK AO2 SLP108 T02330211 51014
Observed Flight Rules
Aug-19 @ 14:53 UTC
(46 minutes ago)
VFR
Wind Visibility
320° at 9 knots 10 miles
Clouds
  • Clear skies
Temperature Dewpoint
23°C / 73°F 21°C / 70°F
Humidity Altimeter Pressure
89% 29.92" Hg 1010.8 hPa